createdAt,value
2024-02-13T00:01:41.938Z,76.87
2024-02-13T00:05:44.951Z,77.59
2024-02-13T00:09:47.193Z,77.73
2024-02-13T00:13:49.334Z,77.81
2024-02-13T00:17:52.719Z,77.82
2024-02-13T00:21:54.875Z,77.53
2024-02-13T00:25:56.966Z,77.27
2024-02-13T00:29:59.031Z,77.72
2024-02-13T00:34:00.783Z,78.00
2024-02-13T00:38:02.820Z,78.52
2024-02-13T00:42:06.532Z,78.23
2024-02-13T00:46:10.674Z,78.28
2024-02-13T00:50:15.869Z,79.27
2024-02-13T00:54:18.229Z,78.76
2024-02-13T00:58:20.606Z,78.75
2024-02-13T01:02:23.856Z,79.44
2024-02-13T01:06:25.985Z,79.92
2024-02-13T01:10:28.032Z,81.90
2024-02-13T01:14:30.070Z,82.23
2024-02-13T01:18:33.828Z,82.45
2024-02-13T01:22:36.544Z,82.15
2024-02-13T01:26:39.119Z,82.41
2024-02-13T01:30:41.353Z,82.66
2024-02-13T01:34:43.835Z,83.06
2024-02-13T01:38:46.092Z,83.59
2024-02-13T01:42:50.611Z,83.86
2024-02-13T01:46:53.722Z,84.28
2024-02-13T01:51:01.856Z,82.73
2024-02-13T01:55:04.268Z,82.26
2024-02-13T01:59:06.996Z,82.51
2024-02-13T02:03:15.980Z,81.82
2024-02-13T02:07:19.010Z,81.72
2024-02-13T02:11:21.277Z,81.56
2024-02-13T02:15:23.303Z,81.94
2024-02-13T02:19:25.466Z,81.39
2024-02-13T02:23:28.037Z,80.97
2024-02-13T02:27:30.289Z,80.70
2024-02-13T02:31:32.626Z,80.92
2024-02-13T02:35:35.026Z,82.28
2024-02-13T02:39:37.110Z,82.69
2024-02-13T02:43:39.360Z,83.52
2024-02-13T02:47:41.502Z,82.73
2024-02-13T02:51:44.921Z,80.49
2024-02-13T02:55:46.996Z,80.86
2024-02-13T02:59:49.271Z,80.57
2024-02-13T03:03:51.634Z,79.60
2024-02-13T03:07:53.842Z,78.59
2024-02-13T03:11:56.732Z,77.32
2024-02-13T03:15:59.016Z,78.62
2024-02-13T03:20:02.177Z,79.18
2024-02-13T03:24:06.356Z,77.85
2024-02-13T03:28:08.824Z,78.59
2024-02-13T03:32:11.047Z,78.98
2024-02-13T03:36:17.932Z,79.50
2024-02-13T03:40:20.195Z,79.37
2024-02-13T03:44:23.884Z,77.76
2024-02-13T03:48:26.281Z,79.92
2024-02-13T03:52:28.526Z,79.29
2024-02-13T03:56:30.719Z,78.83
2024-02-13T04:00:34.032Z,78.02
2024-02-13T04:04:36.586Z,76.93
2024-02-13T04:08:40.330Z,76.41
2024-02-13T04:12:42.447Z,75.93
2024-02-13T04:16:45.471Z,76.22
2024-02-13T04:20:47.698Z,76.35
2024-02-13T04:24:50.305Z,75.53
2024-02-13T04:28:52.391Z,75.28
2024-02-13T04:32:54.674Z,75.41
2024-02-13T04:36:56.787Z,76.67
2024-02-13T04:40:58.973Z,75.41
2024-02-13T04:45:01.825Z,75.75
2024-02-13T04:49:04.065Z,75.52
2024-02-13T04:53:06.358Z,75.50
2024-02-13T04:57:08.381Z,76.46
2024-02-13T05:01:13.330Z,74.66
2024-02-13T05:05:34.605Z,74.53
2024-02-13T05:09:36.968Z,75.89
2024-02-13T05:13:40.066Z,75.85
2024-02-13T05:17:42.733Z,75.82
2024-02-13T05:21:44.967Z,76.36
2024-02-13T05:25:46.886Z,77.17
2024-02-13T05:29:49.448Z,76.99
2024-02-13T05:33:53.402Z,77.77
2024-02-13T05:37:55.747Z,78.43
2024-02-13T05:41:58.869Z,78.24
2024-02-13T05:46:01.140Z,78.33
2024-02-13T05:50:05.112Z,78.16
2024-02-13T05:54:07.583Z,77.96
2024-02-13T05:58:10.096Z,77.60
2024-02-13T06:02:12.152Z,77.78
2024-02-13T06:06:15.943Z,75.98
2024-02-13T06:10:18.265Z,76.64
2024-02-13T06:14:20.497Z,77.80
2024-02-13T06:18:24.175Z,77.70
2024-02-13T06:22:26.499Z,77.07
2024-02-13T06:26:28.802Z,77.27
2024-02-13T06:30:33.182Z,77.16
2024-02-13T06:34:37.670Z,77.78
2024-02-13T06:38:39.914Z,77.54
2024-02-13T06:42:42.200Z,78.26
2024-02-13T06:46:44.354Z,78.52
2024-02-13T06:50:46.504Z,79.07
2024-02-13T06:54:50.788Z,79.20
2024-02-13T06:58:53.396Z,79.16
2024-02-13T07:02:56.183Z,79.40
2024-02-13T07:07:08.762Z,80.37
2024-02-13T07:11:20.846Z,78.41
2024-02-13T07:15:23.303Z,79.88
2024-02-13T07:19:26.784Z,78.79
2024-02-13T07:23:29.196Z,78.82
2024-02-13T07:27:31.704Z,78.10
2024-02-13T07:31:36.743Z,77.66
2024-02-13T07:35:39.096Z,77.76
2024-02-13T07:39:41.572Z,77.40
2024-02-13T07:43:43.853Z,77.48
2024-02-13T07:47:46.133Z,76.75
2024-02-13T07:51:49.900Z,76.88
2024-02-13T07:55:52.086Z,76.24
2024-02-13T07:59:57.304Z,77.20
2024-02-13T08:03:59.975Z,76.63
2024-02-13T08:08:03.772Z,76.01
2024-02-13T08:12:07.970Z,76.26
2024-02-13T08:16:12.476Z,76.35
2024-02-13T08:20:14.805Z,76.48
2024-02-13T08:24:19.349Z,75.33
2024-02-13T08:28:23.711Z,75.51
2024-02-13T08:32:28.157Z,75.56
2024-02-13T08:36:30.907Z,75.86
2024-02-13T08:40:32.981Z,75.50
2024-02-13T08:44:36.169Z,75.94
2024-02-13T08:48:38.783Z,75.61
2024-02-13T08:52:41.066Z,74.29
2024-02-13T08:56:44.025Z,74.85
2024-02-13T09:00:46.376Z,74.94
2024-02-13T09:04:51.417Z,74.48
2024-02-13T09:08:53.357Z,74.99
2024-02-13T09:12:55.692Z,74.32
2024-02-13T09:17:00.458Z,74.53
2024-02-13T09:21:02.949Z,74.62
2024-02-13T09:25:05.823Z,74.89
2024-02-13T09:29:07.925Z,74.31
2024-02-13T09:33:11.078Z,74.74
2024-02-13T09:37:14.263Z,75.07
2024-02-13T09:41:16.484Z,75.29
2024-02-13T09:45:18.995Z,72.94
2024-02-13T09:49:23.218Z,74.04
2024-02-13T09:53:30.264Z,72.75
2024-02-13T09:57:32.566Z,72.52
2024-02-13T10:01:35.470Z,73.12
2024-02-13T10:05:37.780Z,73.37
2024-02-13T10:09:39.912Z,71.84
2024-02-13T10:13:47.039Z,72.51
2024-02-13T10:17:52.475Z,72.13
2024-02-13T10:22:06.713Z,72.11
2024-02-13T10:26:09.595Z,72.55
2024-02-13T10:30:21.337Z,72.09
2024-02-13T10:34:23.432Z,71.36
2024-02-13T10:38:29.118Z,71.63
2024-02-13T10:42:38.525Z,71.43
2024-02-13T10:46:41.955Z,69.94
2024-02-13T10:50:44.851Z,69.23
2024-02-13T10:54:49.411Z,70.46
2024-02-13T10:58:51.682Z,71.38
2024-02-13T11:02:55.754Z,71.67
2024-02-13T11:06:58.219Z,71.33
2024-02-13T11:11:08.180Z,71.98
2024-02-13T11:15:15.260Z,71.79
2024-02-13T11:19:23.791Z,71.70
2024-02-13T11:23:29.919Z,71.53
2024-02-13T11:27:32.765Z,70.63
2024-02-13T11:31:35.306Z,68.67
2024-02-13T11:35:58.073Z,68.69
2024-02-13T11:40:00.536Z,69.83
2024-02-13T11:44:12.397Z,68.66
2024-02-13T11:48:18.353Z,68.91
2024-02-13T11:52:22.236Z,73.05
2024-02-13T11:56:24.463Z,75.19
2024-02-13T12:00:27.421Z,78.21
2024-02-13T12:04:30.923Z,77.88
2024-02-13T12:08:41.906Z,77.35
2024-02-13T12:12:44.236Z,78.25
2024-02-13T12:16:46.470Z,77.16
2024-02-13T12:20:51.121Z,76.09
2024-02-13T12:24:53.361Z,75.39
2024-02-13T12:28:58.809Z,75.60
2024-02-13T12:33:08.313Z,75.20
2024-02-13T12:37:16.398Z,75.27
2024-02-13T12:41:19.272Z,73.64
2024-02-13T12:45:22.506Z,73.80
2024-02-13T12:49:25.078Z,74.70
2024-02-13T12:53:28.113Z,74.36
2024-02-13T12:57:32.101Z,73.76
2024-02-13T13:01:39.177Z,72.68
2024-02-13T13:05:44.893Z,70.42
2024-02-13T13:09:48.044Z,69.73
2024-02-13T13:13:50.925Z,69.77
2024-02-13T13:17:55.381Z,72.08
2024-02-13T13:21:59.208Z,72.38
2024-02-13T13:26:02.405Z,75.04
2024-02-13T13:30:05.747Z,75.59
2024-02-13T13:34:10.547Z,76.24
2024-02-13T13:38:21.223Z,77.51
2024-02-13T13:42:23.404Z,78.37
2024-02-13T13:46:26.883Z,77.85
2024-02-13T13:50:29.080Z,79.86
2024-02-13T13:54:31.193Z,79.52
2024-02-13T13:58:33.605Z,78.72
2024-02-13T14:02:39.600Z,79.33
2024-02-13T14:06:41.852Z,80.62
2024-02-13T14:10:46.183Z,80.37
2024-02-13T14:14:48.518Z,80.67
2024-02-13T14:18:50.799Z,80.14
2024-02-13T14:22:55.316Z,79.31
2024-02-13T14:26:57.648Z,77.45
2024-02-13T14:30:59.937Z,77.17
2024-02-13T14:35:03.071Z,75.39
2024-02-13T14:39:05.390Z,74.85
2024-02-13T14:43:08.658Z,74.65
2024-02-13T14:47:11.088Z,74.18
2024-02-13T14:51:19.405Z,74.48
2024-02-13T14:55:21.928Z,72.32
2024-02-13T14:59:26.539Z,71.67
2024-02-13T15:03:29.035Z,70.41
2024-02-13T15:07:31.495Z,69.56
2024-02-13T15:11:34.535Z,71.34
2024-02-13T15:15:37.344Z,70.28
2024-02-13T15:19:41.543Z,67.81
2024-02-13T15:23:45.006Z,68.55
2024-02-13T15:27:47.196Z,66.12
2024-02-13T15:31:49.686Z,68.10
2024-02-13T15:36:06.095Z,66.22
2024-02-13T15:40:27.962Z,66.48
2024-02-13T15:44:48.769Z,66.97
2024-02-13T15:48:53.199Z,66.82
2024-02-13T15:52:56.472Z,68.81
2024-02-13T15:56:59.189Z,68.12
2024-02-13T16:01:02.776Z,66.48
2024-02-13T16:05:05.466Z,67.66
2024-02-13T16:09:07.651Z,65.21
2024-02-13T16:13:11.480Z,66.33
2024-02-13T16:17:13.585Z,66.49
2024-02-13T16:21:15.819Z,63.76
2024-02-13T16:25:19.801Z,65.02
2024-02-13T16:29:24.528Z,64.79
2024-02-13T16:33:26.896Z,65.73
2024-02-13T16:37:32.311Z,63.19
2024-02-13T16:41:34.476Z,66.13
2024-02-13T16:45:36.995Z,62.24
2024-02-13T16:49:39.222Z,62.94
2024-02-13T16:53:42.388Z,66.28
2024-02-13T16:57:46.199Z,64.76
2024-02-13T17:01:48.258Z,66.63
2024-02-13T17:05:51.625Z,66.51
2024-02-13T17:09:53.743Z,66.79
2024-02-13T17:13:55.907Z,65.71
2024-02-13T17:17:58.669Z,65.84
2024-02-13T17:22:00.850Z,69.19
2024-02-13T17:26:03.157Z,67.65
2024-02-13T17:30:08.842Z,66.82
2024-02-13T17:34:11.225Z,67.16
2024-02-13T17:38:13.839Z,69.84
2024-02-13T17:42:16.825Z,68.80
2024-02-13T17:46:18.971Z,67.76
2024-02-13T17:50:21.550Z,68.15
2024-02-13T17:54:29.211Z,68.76
2024-02-13T17:58:35.312Z,69.45
2024-02-13T18:02:40.654Z,69.13
2024-02-13T18:06:43.723Z,69.45
2024-02-13T18:10:45.872Z,69.18
2024-02-13T18:14:48.141Z,71.44
2024-02-13T18:18:50.963Z,71.77
2024-02-13T18:22:55.250Z,70.84
2024-02-13T18:26:58.036Z,70.98
2024-02-13T18:31:00.312Z,71.15
2024-02-13T18:35:02.599Z,72.75
2024-02-13T18:39:04.767Z,70.53
2024-02-13T18:43:06.909Z,71.13
2024-02-13T18:47:11.272Z,72.30
2024-02-13T18:51:15.731Z,71.83
2024-02-13T18:55:18.631Z,71.12
2024-02-13T18:59:21.172Z,71.62
2024-02-13T19:03:23.622Z,72.03
2024-02-13T19:07:25.739Z,71.97
2024-02-13T19:11:28.234Z,71.44
2024-02-13T19:15:30.421Z,71.60
2024-02-13T19:19:33.604Z,70.86
2024-02-13T19:23:35.744Z,70.64
2024-02-13T19:27:38.558Z,71.35
2024-02-13T19:31:42.411Z,70.09
2024-02-13T19:35:46.195Z,70.46
2024-02-13T19:39:48.768Z,71.12
2024-02-13T19:43:51.780Z,71.00
2024-02-13T19:47:54.135Z,71.37
2024-02-13T19:51:57.143Z,67.49
2024-02-13T19:55:59.509Z,67.56
2024-02-13T20:00:04.145Z,69.35
2024-02-13T20:04:07.384Z,68.36
2024-02-13T20:08:10.848Z,68.94
2024-02-13T20:12:13.036Z,69.56
2024-02-13T20:16:15.133Z,69.21
2024-02-13T20:20:17.989Z,68.47
2024-02-13T20:24:20.187Z,67.66
2024-02-13T20:28:22.296Z,68.98
2024-02-13T20:32:25.680Z,67.60
2024-02-13T20:36:27.860Z,69.03
2024-02-13T20:40:30.617Z,69.09
2024-02-13T20:44:32.814Z,68.98
2024-02-13T20:48:35.136Z,69.83
2024-02-13T20:52:38.146Z,70.34
2024-02-13T20:56:40.771Z,70.20
2024-02-13T21:00:44.821Z,69.18
2024-02-13T21:04:48.722Z,69.98
2024-02-13T21:08:52.572Z,69.83
2024-02-13T21:12:58.178Z,70.17
2024-02-13T21:17:00.278Z,71.50
2024-02-13T21:21:21.448Z,70.78
2024-02-13T21:25:24.670Z,69.55
2024-02-13T21:29:27.692Z,70.63
2024-02-13T21:33:30.061Z,70.00
2024-02-13T21:37:33.594Z,70.99
2024-02-13T21:41:36.608Z,69.57
2024-02-13T21:45:38.944Z,70.40
2024-02-13T21:49:41.213Z,70.47
2024-02-13T21:53:48.581Z,71.05
2024-02-13T21:57:50.740Z,71.44
2024-02-13T22:01:52.873Z,71.77
2024-02-13T22:05:55.278Z,72.28
2024-02-13T22:09:57.733Z,72.03
2024-02-13T22:14:01.905Z,71.78
2024-02-13T22:18:04.192Z,73.27
2024-02-13T22:22:06.456Z,72.86
2024-02-13T22:26:08.569Z,73.93
2024-02-13T22:30:13.741Z,73.02
2024-02-13T22:34:16.191Z,72.64
2024-02-13T22:38:18.469Z,72.64
2024-02-13T22:42:20.584Z,73.44
2024-02-13T22:46:26.094Z,73.37
2024-02-13T22:50:29.703Z,74.11
2024-02-13T22:54:32.621Z,73.60
2024-02-13T22:58:34.739Z,74.22
2024-02-13T23:02:37.235Z,73.58
2024-02-13T23:06:43.009Z,73.92
2024-02-13T23:10:45.220Z,74.73
2024-02-13T23:14:47.379Z,73.93
2024-02-13T23:18:50.316Z,73.84
2024-02-13T23:22:52.669Z,73.86
2024-02-13T23:26:54.871Z,74.48
2024-02-13T23:30:56.967Z,74.23
2024-02-13T23:34:59.104Z,74.61
2024-02-13T23:39:01.935Z,75.45
2024-02-13T23:43:06.916Z,75.17
2024-02-13T23:47:09.144Z,74.39
2024-02-13T23:51:11.457Z,73.85
2024-02-13T23:55:14.627Z,73.72
2024-02-13T23:59:16.704Z,73.90
